Terminal Aerodrome Forecast
Issued by NWS Dodge City, KS

Home | Current Version | Previous Version | Graphics & Text | Print | Product List | Glossary Off
Versions: 1 2 3 4 5 6 7 8 9 10 11 12 13 14 15 16 17 18 19 20 21 22 23 24 25 26 27 28 29 30 31 32 33 34 35 36 37 38 39 40 41 42

000
FTUS43 KDDC 172130 AAA
TAFDDC
TAF AMD
KDDC 172130Z 1722/1818 13013KT P6SM OVC010
      TEMPO 1722/1724 3SM BR BKN007
     FM180000 12010KT P6SM OVC007
      TEMPO 1800/1803 P6SM -RASN OVC003
     FM180300 11010KT 2SM -SN OVC003=

USA.gov is the U.S. government's official web portal to all federal, state and local government web resources and services.